Time;durP1;ratioP1;P1;durP2;ratioP2;P2;SDS_P1;SDS_P2;PMS_P1;PMS_P2;Temp;Humidity;BMP_temperature;BMP_pressure;BME280_temperature;BME280_humidity;BME280_pressure;Samples;Min_cycle;Max_cycle;Signal;HPM_P1;HPM_P2
2021/12/21 00:00:15;;;;;;;22.20;7.70;;;-5.70;99.90;;;;;;4999991;28;20539;-79
2021/12/21 00:02:42;;;;;;;21.87;7.47;;;;;;;;;;4999452;28;20492;-78
2021/12/21 00:05:15;;;;;;;21.53;8.33;;;-5.70;99.90;;;;;;4997625;28;20490;-79
2021/12/21 00:07:42;;;;;;;24.80;8.77;;;-5.70;99.90;;;;;;4997683;28;20491;-78
2021/12/21 00:10:10;;;;;;;20.13;7.93;;;-5.80;99.90;;;;;;5001187;28;20969;-79
2021/12/21 00:12:46;;;;;;;20.10;7.13;;;;;;;;;;4993777;28;20491;-79
2021/12/21 00:15:21;;;;;;;22.90;7.43;;;;;;;;;;5000418;28;20558;-79
2021/12/21 00:17:54;;;;;;;31.33;7.50;;;;;;;;;;5001402;28;20526;-78
2021/12/21 00:20:31;;;;;;;19.43;7.13;;;;;;;;;;4998767;28;21983;-78
2021/12/21 00:25:45;;;;;;;21.87;7.87;;;;;;;;;;4993137;28;20839;-78
2021/12/21 00:28:14;;;;;;;26.60;8.00;;;;;;;;;;4999623;28;20459;-79
2021/12/21 00:30:41;;;;;;;24.07;8.03;;;;;;;;;;5000593;28;20452;-79
2021/12/21 00:33:08;;;;;;;21.73;7.13;;;;;;;;;;4999642;28;21518;-79
2021/12/21 00:35:36;;;;;;;19.67;7.43;;;;;;;;;;5000673;28;20512;-80
2021/12/21 00:38:04;;;;;;;21.47;7.90;;;-5.70;99.90;;;;;;4999528;28;20511;-79
2021/12/21 00:40:31;;;;;;;29.00;8.80;;;-5.80;99.90;;;;;;4999322;28;20459;-80
2021/12/21 00:42:58;;;;;;;20.37;6.87;;;-5.90;99.90;;;;;;4999810;28;20903;-78
2021/12/21 00:45:26;;;;;;;22.70;7.67;;;;;;;;;;4997080;28;20593;-78
2021/12/21 00:47:54;;;;;;;18.73;7.93;;;;;;;;;;4990406;28;20458;-81
2021/12/21 00:50:22;;;;;;;18.73;7.20;;;-5.90;99.90;;;;;;5002307;28;20554;-79
2021/12/21 00:52:50;;;;;;;17.03;6.90;;;;;;;;;;4999814;28;20463;-79
2021/12/21 00:55:17;;;;;;;18.90;7.50;;;;;;;;;;4998661;28;21000;-79
2021/12/21 00:57:44;;;;;;;20.47;6.73;;;;;;;;;;5000729;28;20479;-78
2021/12/21 01:00:13;;;;;;;16.63;7.23;;;;;;;;;;4997830;28;20456;-78
2021/12/21 01:02:42;;;;;;;21.43;7.10;;;;;;;;;;4997529;28;20497;-77
2021/12/21 01:05:17;;;;;;;17.77;6.60;;;;;;;;;;4995934;28;21036;-79
2021/12/21 01:07:48;;;;;;;19.20;7.27;;;;;;;;;;4996443;28;20463;-78
2021/12/21 01:10:46;;;;;;;16.07;6.90;;;;;;;;;;4995062;28;20463;-79
2021/12/21 01:13:31;;;;;;;22.60;7.00;;;;;;;;;;5001582;28;20549;-78
2021/12/21 01:16:06;;;;;;;17.53;7.27;;;;;;;;;;4999966;28;20479;-78
2021/12/21 01:18:39;;;;;;;22.67;7.90;;;;;;;;;;4998847;28;20852;-78
2021/12/21 01:21:13;;;;;;;19.63;7.30;;;;;;;;;;4996090;28;20464;-79
2021/12/21 01:26:35;;;;;;;17.30;6.23;;;;;;;;;;4971926;28;20475;-77
2021/12/21 01:29:11;;;;;;;19.53;6.73;;;;;;;;;;4997422;28;20517;-78
2021/12/21 01:31:47;;;;;;;19.17;6.60;;;;;;;;;;4998443;28;20470;-79
2021/12/21 01:34:28;;;;;;;20.83;7.30;;;;;;;;;;4998875;28;20510;-79
2021/12/21 01:37:01;;;;;;;21.83;7.03;;;;;;;;;;5004349;28;20514;-78
2021/12/21 01:39:53;;;;;;;24.03;7.03;;;;;;;;;;5003016;28;20514;-77
2021/12/21 01:42:30;;;;;;;22.13;7.07;;;;;;;;;;4997567;28;20817;-78
2021/12/21 01:50:28;;;;;;;29.73;8.00;;;;;;;;;;4998772;28;20446;-78
2021/12/21 01:52:56;;;;;;;25.17;7.80;;;;;;;;;;4995545;28;20545;-75
2021/12/21 01:55:23;;;;;;;22.60;7.10;;;;;;;;;;4997307;28;20566;-76
2021/12/21 01:57:50;;;;;;;21.73;6.73;;;;;;;;;;5000764;28;20578;-80
2021/12/21 02:00:18;;;;;;;18.53;6.77;;;;;;;;;;5002367;28;20558;-77
2021/12/21 02:02:45;;;;;;;16.70;6.57;;;;;;;;;;5001966;28;20890;-77
2021/12/21 02:05:12;;;;;;;19.80;6.83;;;;;;;;;;5000887;28;20558;-77
2021/12/21 02:07:41;;;;;;;19.33;7.30;;;;;;;;;;5001918;28;20554;-80
2021/12/21 02:10:09;;;;;;;17.97;6.23;;;;;;;;;;5002400;28;20540;-77
2021/12/21 02:12:36;;;;;;;15.70;5.33;;;;;;;;;;5000945;28;20507;-78
2021/12/21 02:15:05;;;;;;;21.20;6.00;;;;;;;;;;5002374;28;20537;-77
2021/12/21 02:20:25;;;;;;;18.40;5.93;;;;;;;;;;4980623;28;20453;-76
2021/12/21 02:22:59;;;;;;;22.17;6.80;;;;;;;;;;5005977;28;20470;-77
2021/12/21 02:25:51;;;;;;;24.83;6.10;;;;;;;;;;5003171;28;20487;-77
2021/12/21 02:28:45;;;;;;;22.43;6.33;;;;;;;;;;5005491;28;21771;-76
2021/12/21 02:31:13;;;;;;;27.57;6.07;;;;;;;;;;5004406;28;20486;-79
2021/12/21 02:33:41;;;;;;;19.00;6.53;;;;;;;;;;5006038;28;20646;-77
2021/12/21 02:36:09;;;;;;;20.27;6.83;;;;;;;;;;5004426;28;20580;-77
2021/12/21 02:38:36;;;;;;;19.50;6.53;;;;;;;;;;5003193;28;20483;-76
2021/12/21 02:41:04;;;;;;;16.17;6.57;;;;;;;;;;5005679;28;21025;-79
2021/12/21 02:43:34;;;;;;;18.93;5.77;;;;;;;;;;5000369;28;20600;-78
2021/12/21 02:46:02;;;;;;;19.03;5.70;;;;;;;;;;4996780;28;20479;-77
2021/12/21 02:48:29;;;;;;;18.60;5.23;;;;;;;;;;4993217;28;20492;-76
2021/12/21 02:50:56;;;;;;;16.37;5.37;;;;;;;;;;5007400;23;20802;-77
2021/12/21 02:53:25;;;;;;;15.07;5.83;;;;;;;;;;5037084;28;20556;-79
2021/12/21 02:55:52;;;;;;;14.77;5.40;;;;;;;;;;5040659;28;20568;-80
2021/12/21 02:58:19;;;;;;;28.50;6.53;;;;;;;;;;5040075;28;20889;-80
2021/12/21 03:00:47;;;;;;;13.80;5.13;;;;;;;;;;5037800;28;20569;-80
2021/12/21 03:03:15;;;;;;;15.93;5.80;;;;;;;;;;5038480;28;21035;-80
2021/12/21 03:05:46;;;;;;;15.17;5.90;;;;;;;;;;5043071;28;20489;-79
2021/12/21 03:08:18;;;;;;;17.63;6.40;;;;;;;;;;5044638;28;20457;-79
2021/12/21 03:11:01;;;;;;;19.53;5.60;;;;;;;;;;5038148;28;20454;-79
2021/12/21 03:16:13;;;;;;;18.17;5.53;;;;;;;;;;5037733;28;20468;-80
2021/12/21 03:18:41;;;;;;;18.07;5.97;;;;;;;;;;5036946;28;20508;-80
2021/12/21 03:21:08;;;;;;;16.90;5.33;;;;;;;;;;5038976;28;21050;-80
2021/12/21 03:23:35;;;;;;;18.67;5.80;;;;;;;;;;5040092;28;20457;-81
2021/12/21 03:26:04;;;;;;;18.07;5.30;;;;;;;;;;5045233;28;20986;-80
2021/12/21 03:28:31;;;;;;;15.33;5.10;;;;;;;;;;5050674;28;20461;-80
2021/12/21 03:30:58;;;;;;;14.07;4.63;;;;;;;;;;5051197;28;20489;-80
2021/12/21 03:33:25;;;;;;;16.50;4.97;;;;;;;;;;5064449;28;20465;-80
2021/12/21 03:35:53;;;;;;;15.83;5.07;;;;;;;;;;5055372;28;20473;-80
2021/12/21 03:38:20;;;;;;;13.00;5.17;;;;;;;;;;5042754;28;20517;-80
2021/12/21 03:40:47;;;;;;;20.13;4.80;;;;;;;;;;5037099;28;20483;-80
2021/12/21 03:43:16;;;;;;;11.83;4.10;;;;;;;;;;5037505;28;20820;-80
2021/12/21 03:45:52;;;;;;;13.83;4.70;;;;;;;;;;5040023;28;20548;-80
2021/12/21 03:48:19;;;;;;;16.10;4.70;;;;;;;;;;5041375;28;20457;-79
2021/12/21 03:50:47;;;;;;;14.27;4.40;;;;;;;;;;5036767;28;20550;-80
2021/12/21 03:53:14;;;;;;;13.43;4.70;;;;;;;;;;5037579;28;20560;-79
2021/12/21 03:55:41;;;;;;;19.97;5.00;;;;;;;;;;5040558;28;20936;-80
2021/12/21 03:58:09;;;;;;;17.60;5.20;;;;;;;;;;5046356;28;20478;-80
2021/12/21 04:00:38;;;;;;;13.07;4.13;;;;;;;;;;5037917;28;20463;-80
2021/12/21 04:03:05;;;;;;;12.83;4.33;;;;;;;;;;5036570;28;20509;-80
2021/12/21 04:05:32;;;;;;;13.57;4.20;;;;;;;;;;5038128;28;21002;-80
2021/12/21 04:07:59;;;;;;;12.83;4.83;;;;;;;;;;5033685;28;20465;-79
2021/12/21 04:10:26;;;;;;;11.67;4.57;;;;;;;;;;5037451;28;20552;-80
2021/12/21 04:12:53;;;;;;;15.03;4.33;;;;;;;;;;5038421;28;20552;-80
2021/12/21 04:15:24;;;;;;;14.70;4.70;;;;;;;;;;5038064;28;20576;-80
2021/12/21 04:17:52;;;;;;;13.10;4.63;;;;;;;;;;5038485;28;20463;-79
2021/12/21 04:20:19;;;;;;;13.23;4.53;;;;;;;;;;5036886;28;20496;-78
2021/12/21 04:22:47;;;;;;;13.57;4.53;;;;;;;;;;5037075;28;20531;-80
2021/12/21 04:25:14;;;;;;;16.90;4.57;;;;;;;;;;5039031;28;21684;-80
2021/12/21 04:27:41;;;;;;;9.00;3.93;;;;;;;;;;5044261;28;20967;-80
2021/12/21 04:30:09;;;;;;;16.53;5.27;;;;;;;;;;5047689;28;20481;-80
2021/12/21 04:32:36;;;;;;;15.83;4.43;;;;;;;;;;5049581;28;20470;-79
2021/12/21 04:35:06;;;;;;;12.83;4.10;;;;;;;;;;5051716;28;20550;-80
2021/12/21 04:37:40;;;;;;;16.43;4.97;;;;;;;;;;5057362;28;20522;-79
2021/12/21 04:40:13;;;;;;;14.30;4.70;;;;;;;;;;5051370;28;20485;-80
2021/12/21 04:42:40;;;;;;;11.77;3.97;;;;;;;;;;5041492;28;21702;-79
2021/12/21 04:45:07;;;;;;;20.07;6.83;;;;;;;;;;5039700;28;20508;-80
2021/12/21 04:47:35;;;;;;;18.73;7.50;;;;;;;;;;5040704;28;20493;-81
2021/12/21 04:50:02;;;;;;;23.40;7.40;;;;;;;;;;5042835;28;20493;-80
2021/12/21 04:52:30;;;;;;;18.93;6.80;;;;;;;;;;5041718;28;21065;-80
2021/12/21 04:54:58;;;;;;;20.97;6.67;;;;;;;;;;5039790;28;20512;-80
2021/12/21 04:57:26;;;;;;;20.27;6.63;;;;;;;;;;5042912;28;20822;-80
2021/12/21 04:59:53;;;;;;;18.00;5.87;;;;;;;;;;5044413;28;20547;-80
2021/12/21 05:02:21;;;;;;;19.40;6.93;;;;;;;;;;5038718;28;20995;-80
2021/12/21 05:04:48;;;;;;;30.97;5.40;;;;;;;;;;5044740;28;20508;-79
2021/12/21 05:07:22;;;;;;;12.97;4.80;;;;;;;;;;5046692;28;20546;-80
2021/12/21 05:09:56;;;;;;;16.73;5.20;;;;;;;;;;5042307;28;20508;-78
2021/12/21 05:12:23;;;;;;;11.67;4.63;;;;;;;;;;5036951;28;20521;-78
2021/12/21 05:14:51;;;;;;;15.00;4.57;;;;;;;;;;5037348;28;20572;-78
2021/12/21 05:17:18;;;;;;;15.67;4.80;;;;;;;;;;5041418;28;20564;-79
2021/12/21 05:19:45;;;;;;;15.77;5.03;;;;;;;;;;5044065;28;20596;-79
2021/12/21 05:22:15;;;;;;;16.70;5.43;;;;;;;;;;5042180;28;20466;-79
2021/12/21 05:24:42;;;;;;;9.63;4.63;;;;;;;;;;5040928;28;20469;-79
2021/12/21 05:27:11;;;;;;;17.40;4.50;;;;;;;;;;5035310;28;20472;-80
2021/12/21 05:29:39;;;;;;;8.80;4.30;;;;;;;;;;5042848;28;20453;-79
2021/12/21 05:32:06;;;;;;;11.80;3.80;;;;;;;;;;5041361;28;20601;-79
2021/12/21 05:34:33;;;;;;;11.77;3.87;;;;;;;;;;5044722;28;20557;-79
2021/12/21 05:37:05;;;;;;;7.47;2.90;;;;;;;;;;5045949;28;20462;-79
2021/12/21 05:39:40;;;;;;;10.17;3.30;;;;;;;;;;5049938;28;20536;-79
2021/12/21 05:42:08;;;;;;;19.50;4.47;;;;;;;;;;5046806;28;20451;-78
2021/12/21 05:44:37;;;;;;;9.33;3.93;;;;;;;;;;5047744;28;20523;-79
2021/12/21 05:47:04;;;;;;;10.37;4.00;;;;;;;;;;5050242;28;20481;-79
2021/12/21 05:49:33;;;;;;;16.17;3.90;;;;;;;;;;5053123;28;20475;-80
2021/12/21 05:52:01;;;;;;;11.37;3.97;;;;;;;;;;5056313;28;20457;-78
2021/12/21 05:54:28;;;;;;;9.77;3.87;;;;;;;;;;5055996;28;20481;-79
2021/12/21 05:56:55;;;;;;;13.77;3.77;;;;;;;;;;5054680;28;20474;-79
2021/12/21 05:59:23;;;;;;;11.93;3.87;;;;;;;;;;5050113;28;20490;-80
2021/12/21 06:01:51;;;;;;;9.90;3.40;;;;;;;;;;5056231;28;20457;-81
2021/12/21 06:04:18;;;;;;;14.43;3.30;;;;;;;;;;5052841;28;20481;-81
2021/12/21 06:06:46;;;;;;;14.17;3.70;;;;;;;;;;5053934;28;20542;-80
2021/12/21 06:09:14;;;;;;;10.77;3.83;;;;;;;;;;5049935;28;20529;-77
2021/12/21 06:11:47;;;;;;;8.83;4.30;;;;;;;;;;5048901;28;20500;-79
2021/12/21 06:14:24;;;;;;;9.57;3.20;;;;;;;;;;5047820;28;20460;-79
2021/12/21 06:25:36;;;;;;;8.13;3.30;;;;;;;;;;5048497;28;20469;-80
2021/12/21 06:28:03;;;;;;;15.27;4.53;;;;;;;;;;5052574;28;20679;-80
2021/12/21 06:30:31;;;;;;;12.17;3.77;;;;;;;;;;5057067;28;20241;-80
2021/12/21 06:33:00;;;;;;;12.67;3.70;;;;;;;;;;5053414;28;21034;-80
2021/12/21 06:35:27;;;;;;;10.13;3.50;;;;;;;;;;5054025;28;20553;-79
2021/12/21 06:38:12;;;;;;;12.00;3.53;;;;;;;;;;5064142;28;20430;-80
2021/12/21 06:40:40;;;;;;;7.33;3.00;;;;;;;;;;5058146;28;20524;-79
2021/12/21 06:43:12;;;;;;;12.13;3.40;;;;;;;;;;5049756;28;20447;-79
2021/12/21 06:45:48;;;;;;;7.93;3.10;;;;;;;;;;5055534;28;20549;-79
2021/12/21 06:51:14;;;;;;;8.03;2.57;;;;;;;;;;5055219;28;20997;-80
2021/12/21 06:53:42;;;;;;;12.23;2.70;;;;;;;;;;5048107;28;20476;-79
2021/12/21 06:56:10;;;;;;;9.33;2.90;;;;;;;;;;5055427;28;20489;-79
2021/12/21 06:58:37;;;;;;;18.07;6.33;;;;;;;;;;5060564;28;20428;-80
2021/12/21 07:01:05;;;;;;;9.67;3.50;;;;;;;;;;5062213;28;20496;-79
2021/12/21 07:03:34;;;;;;;10.73;3.93;;;;;;;;;;5050732;28;20462;-80
2021/12/21 07:06:02;;;;;;;8.73;3.17;;;;;;;;;;5053099;28;20461;-79
2021/12/21 07:08:32;;;;;;;13.27;3.03;;;;;;;;;;5053015;28;20490;-80
2021/12/21 07:11:11;;;;;;;16.33;4.37;;;;;;;;;;5050042;28;20445;-79
2021/12/21 07:19:10;;;;;;;22.30;7.80;;;;;;;;;;5052895;28;20560;-79
2021/12/21 07:21:38;;;;;;;15.97;7.33;;;;;;;;;;5053377;28;20457;-79
2021/12/21 07:24:06;;;;;;;19.13;5.90;;;;;;;;;;5051520;28;20465;-79
2021/12/21 07:26:33;;;;;;;20.67;7.43;;;;;;;;;;5046305;28;20489;-79
2021/12/21 07:29:00;;;;;;;15.40;5.97;;;;;;;;;;5048532;28;20461;-80
2021/12/21 07:31:28;;;;;;;12.07;4.60;;;;;;;;;;5045985;28;20522;-80
2021/12/21 07:33:55;;;;;;;16.63;5.07;;;;;;;;;;5053829;28;20459;-80
2021/12/21 07:36:25;;;;;;;49.57;16.60;;;;;;;;;;5051051;28;20474;-80
2021/12/21 07:38:52;;;;;;;14.67;5.13;;;;;;;;;;5056552;28;20442;-80
2021/12/21 07:41:20;;;;;;;32.83;11.83;;;;;;;;;;5057464;28;20461;-81
2021/12/21 07:43:47;;;;;;;22.97;9.50;;;;;;;;;;5056786;28;20461;-80
2021/12/21 07:46:14;;;;;;;18.67;5.90;;;;;;;;;;5054409;28;20457;-81
2021/12/21 07:48:42;;;;;;;15.43;5.40;;;;;;;;;;5057784;28;20453;-80
2021/12/21 07:51:10;;;;;;;16.97;5.20;;;;;;;;;;5053119;28;20456;-80
2021/12/21 07:53:39;;;;;;;19.80;8.83;;;;;;;;;;5050471;28;20467;-80
2021/12/21 07:56:06;;;;;;;17.23;5.70;;;;;;;;;;5055031;28;20556;-80
2021/12/21 07:58:34;;;;;;;14.40;6.37;;;;;;;;;;5053519;28;20458;-80
2021/12/21 08:01:03;;;;;;;13.43;6.27;;;;;;;;;;5049394;28;20489;-80
2021/12/21 08:03:32;;;;;;;26.23;9.73;;;;;;;;;;5056832;28;20481;-80
2021/12/21 08:05:59;;;;;;;17.83;5.67;;;;;;;;;;5055479;28;20998;-80
2021/12/21 08:08:29;;;;;;;12.90;5.10;;;;;;;;;;5052174;28;20450;-79
2021/12/21 08:11:11;;;;;;;17.57;5.70;;;;;;;;;;5052502;28;20465;-80
2021/12/21 08:13:39;;;;;;;15.20;6.07;;;;;;;;;;5053638;28;20454;-79
2021/12/21 08:16:06;;;;;;;19.20;6.30;;;;;;;;;;5052132;28;20517;-80
2021/12/21 08:18:34;;;;;;;14.87;5.50;;;;;;;;;;5055951;28;20442;-80
2021/12/21 08:21:01;;;;;;;12.73;5.23;;;;;;;;;;5052859;28;20499;-80
2021/12/21 08:23:28;;;;;;;41.47;14.10;;;;;;;;;;5050134;28;20458;-80
2021/12/21 08:25:56;;;;;;;25.17;9.37;;;;;;;;;;5051636;28;20968;-80
2021/12/21 08:28:25;;;;;;;26.10;9.20;;;;;;;;;;5054350;28;20771;-80
2021/12/21 08:30:52;;;;;;;18.67;6.83;;;;;;;;;;5055689;28;20446;-80
2021/12/21 08:33:19;;;;;;;23.57;8.30;;;;;;;;;;5052391;28;20481;-80
2021/12/21 08:35:47;;;;;;;23.43;7.00;;;;;;;;;;5060105;28;20489;-80
2021/12/21 08:38:16;;;;;;;19.37;7.53;;;;;;;;;;5052838;28;20901;-80
2021/12/21 08:40:48;;;;;;;15.90;7.50;;;;;;;;;;5052309;28;20492;-80
2021/12/21 08:43:16;;;;;;;27.30;6.20;;;;;;;;;;5055041;28;20465;-80
2021/12/21 08:45:46;;;;;;;16.70;5.70;;;;;;;;;;5054034;28;20482;-82
2021/12/21 08:48:14;;;;;;;23.53;5.93;;;;;;;;;;5051418;28;20470;-79
2021/12/21 08:50:41;;;;;;;18.10;7.13;;;;;;;;;;5059237;28;20476;-80
2021/12/21 08:53:09;;;;;;;43.27;14.10;;;;;;;;;;5040422;23;20526;-81
2021/12/21 08:55:36;;;;;;;39.37;15.87;;;;;;;;;;5014681;28;20497;-81
2021/12/21 08:58:04;;;;;;;24.10;8.53;;;;;;;;;;5008274;28;20527;-81
2021/12/21 09:00:31;;;;;;;22.50;8.47;;;;;;;;;;5002051;28;20476;-81
2021/12/21 09:03:00;;;;;;;24.40;8.63;;;;;;;;;;5006054;28;20462;-80
2021/12/21 09:05:30;;;;;;;17.83;7.77;;;;;;;;;;5011501;28;20562;-81
2021/12/21 09:07:57;;;;;;;23.60;9.10;;;;;;;;;;5013917;28;20474;-80
2021/12/21 09:10:25;;;;;;;25.73;10.17;;;;;;;;;;5006592;28;20458;-80
2021/12/21 09:12:52;;;;;;;20.03;8.33;;;;;;;;;;5003641;28;20463;-80
2021/12/21 09:15:21;;;;;;;24.50;8.20;;;;;;;;;;5009965;28;20917;-80
2021/12/21 09:17:49;;;;;;;21.03;7.63;;;;;;;;;;5011191;28;20494;-81
2021/12/21 09:20:18;;;;;;;21.43;7.97;;;;;;;;;;5008464;28;20525;-80
2021/12/21 09:22:46;;;;;;;19.67;6.33;;;;;;;;;;5010500;28;20471;-82
2021/12/21 09:25:13;;;;;;;23.97;9.00;;;;;;;;;;5016115;28;20475;-80
2021/12/21 09:27:41;;;;;;;21.10;9.13;;;;;;;;;;5023814;28;20483;-80
2021/12/21 09:30:10;;;;;;;22.00;8.73;;;;;;;;;;5026568;28;20462;-82
2021/12/21 09:32:38;;;;;;;23.53;8.70;;;;;;;;;;5032803;28;20512;-81
2021/12/21 09:35:05;;;;;;;26.23;8.03;;;;;;;;;;5020369;28;20471;-81
2021/12/21 09:37:34;;;;;;;17.27;6.80;;;;;;;;;;5017782;28;21013;-81
2021/12/21 09:40:02;;;;;;;13.00;6.07;;;;;;;;;;5009794;28;20513;-81
2021/12/21 09:42:31;;;;;;;20.83;6.57;;;;;;;;;;5016708;28;20476;-81
2021/12/21 09:44:59;;;;;;;18.43;6.97;;;;;;;;;;5015927;28;20487;-79
2021/12/21 09:47:27;;;;;;;20.23;7.13;;;;;;;;;;5009891;28;20902;-80
2021/12/21 09:49:55;;;;;;;22.50;7.07;;;;;;;;;;5017523;28;20451;-79
2021/12/21 09:52:24;;;;;;;21.60;7.90;;;;;;;;;;5013759;28;20897;-80
2021/12/21 09:54:53;;;;;;;15.60;6.10;;;;;;;;;;5019363;28;20471;-80
2021/12/21 09:57:21;;;;;;;17.27;5.57;;;;;;;;;;5009787;28;20475;-81
2021/12/21 09:59:50;;;;;;;25.07;5.80;;;;;;;;;;5016151;28;20463;-82
2021/12/21 10:02:22;;;;;;;12.27;5.80;;;;;;;;;;5015905;28;20451;-80
2021/12/21 10:04:51;;;;;;;11.47;4.30;;;;;;;;;;5015052;28;20497;-82
2021/12/21 10:07:20;;;;;;;10.13;3.37;;;;;;;;;;5007133;28;20451;-81
2021/12/21 10:09:47;;;;;;;14.53;3.57;;;;;;;;;;5015949;28;20454;-81
2021/12/21 10:12:27;;;;;;;7.57;2.87;;;;;;;;;;5021395;28;20446;-80
2021/12/21 10:15:01;;;;;;;7.77;2.83;;;;;;;;;;5019672;28;20490;-83
2021/12/21 10:17:31;;;;;;;10.73;3.73;;;;;;;;;;5018463;28;20524;-82
2021/12/21 10:19:58;;;;;;;8.80;3.13;;;;;;;;;;5020923;28;20462;-80
2021/12/21 10:22:26;;;;;;;8.47;3.30;;;;;;;;;;5020699;28;20463;-80
2021/12/21 10:24:53;;;;;;;7.13;2.47;;;;;;;;;;5018750;28;20490;-80
2021/12/21 10:27:25;;;;;;;7.47;2.80;;;;;;;;;;5034037;28;20493;-82
2021/12/21 10:29:54;;;;;;;8.17;2.47;;;;;;;;;;5025892;28;20455;-82
2021/12/21 10:32:22;;;;;;;5.37;2.60;;;;;;;;;;5024583;28;20433;-83
2021/12/21 10:34:54;;;;;;;7.67;2.83;;;;;;;;;;5021688;28;20540;-82
2021/12/21 10:37:23;;;;;;;10.37;2.70;;;;;;;;;;5031868;28;20424;-81
2021/12/21 10:39:51;;;;;;;6.43;2.70;;;;;;;;;;5027131;28;20686;-79
2021/12/21 10:42:18;;;;;;;3.83;2.13;;;;;;;;;;5014643;28;20786;-82
2021/12/21 10:44:47;;;;;;;5.27;2.80;;;;;;;;;;5013029;28;20517;-79
2021/12/21 10:47:15;;;;;;;7.77;3.10;;;;;;;;;;5013441;28;20546;-80
2021/12/21 10:49:42;;;;;;;11.30;3.53;;;;;;;;;;5009744;28;20436;-80
2021/12/21 10:52:14;;;;;;;9.00;3.40;;;;;;;;;;5011525;28;20491;-80
2021/12/21 10:54:43;;;;;;;8.80;3.23;;;;;;;;;;5013637;28;20459;-81
2021/12/21 10:57:12;;;;;;;9.50;3.03;;;;;;;;;;5008888;28;20462;-81
2021/12/21 10:59:41;;;;;;;5.00;2.43;;;;;;;;;;5016567;28;20439;-81
2021/12/21 11:02:12;;;;;;;10.17;2.47;;;;;;;;;;5013122;28;20495;-83
2021/12/21 11:04:41;;;;;;;7.23;2.30;;;;;;;;;;5015311;28;20892;-81
2021/12/21 11:07:22;;;;;;;7.97;2.37;;;;;;;;;;5014569;28;20960;-82
2021/12/21 11:09:56;;;;;;;10.83;2.47;;;;;;;;;;5018045;28;20463;-82
2021/12/21 11:12:24;;;;;;;5.00;2.50;;;;;;;;;;5014903;28;20462;-82
2021/12/21 11:14:53;;;;;;;8.70;3.10;;;;;;;;;;5021638;28;20529;-82
2021/12/21 11:17:22;;;;;;;9.13;3.23;;;;;;;;;;5017803;28;20492;-82
2021/12/21 11:19:52;;;;;;;7.90;2.90;;;;;;;;;;5023888;28;20462;-82
2021/12/21 11:22:20;;;;;;;9.47;3.40;;;;;;;;;;5028662;28;20483;-80
2021/12/21 11:24:47;;;;;;;11.83;3.23;;;;;;;;;;5013870;28;20448;-81
2021/12/21 11:27:16;;;;;;;14.70;3.73;;;;;;;;;;5017765;28;20796;-81
2021/12/21 11:29:44;;;;;;;10.47;3.40;;;;;;;;;;5011980;28;20466;-81
2021/12/21 11:32:11;;;;;;;11.27;3.53;;;;;;;;;;5022285;28;20510;-81
2021/12/21 11:34:58;;;;;;;8.10;3.23;;;;;;;;;;5023449;28;20451;-81
2021/12/21 11:37:27;;;;;;;10.10;3.70;;;;;;;;;;5026222;28;20936;-82
2021/12/21 11:39:56;;;;;;;11.13;3.67;;;;;;;;;;5014802;28;20452;-81
2021/12/21 11:42:29;;;;;;;9.27;3.90;;;;;;;;;;5037119;28;20486;-81
2021/12/21 11:44:58;;;;;;;11.90;4.60;;;;;;;;;;5028891;28;20506;-81
2021/12/21 11:47:29;;;;;;;12.40;4.60;;;;;;;;;;5017874;28;20572;-81
2021/12/21 11:50:01;;;;;;;10.40;4.70;;;;;;;;;;5017310;28;20446;-80
2021/12/21 11:52:29;;;;;;;15.73;4.77;;;;;;;;;;5017740;28;20450;-80
2021/12/21 11:54:57;;;;;;;13.20;4.77;;;;;;;;;;5018781;28;20236;-81
2021/12/21 11:57:35;;;;;;;10.60;4.33;;;;;;;;;;5019393;28;20463;-81
2021/12/21 12:00:06;;;;;;;14.33;5.13;;;;;;;;;;5021019;28;20465;-81
2021/12/21 12:02:34;;;;;;;10.97;4.90;;;;;;;;;;5018188;28;20533;-80
2021/12/21 12:05:03;;;;;;;14.50;5.43;;;;;;;;;;5023715;28;20574;-81
2021/12/21 12:07:34;;;;;;;11.57;4.87;;;;;;;;;;5026345;28;20463;-80
2021/12/21 12:10:06;;;;;;;12.60;4.30;;;;;;;;;;5024618;28;20459;-81
2021/12/21 12:12:34;;;;;;;10.17;4.37;;;;;;;;;;5017284;28;20447;-82
2021/12/21 12:15:02;;;;;;;14.03;4.30;;;;;;;;;;5020114;28;20347;-81
2021/12/21 12:17:30;;;;;;;9.53;4.03;;;;;;;;;;5021224;28;20475;-83
2021/12/21 12:20:02;;;;;;;15.03;4.57;;;;;;;;;;5019868;28;20976;-81
2021/12/21 12:22:38;;;;;;;10.37;4.40;;;;;;;;;;5008719;28;20526;-82
2021/12/21 12:25:06;;;;;;;7.07;3.80;;;;;;;;;;5022682;28;20505;-82
2021/12/21 12:27:34;;;;;;;10.00;4.40;;;;;;;;;;5025056;28;20527;-81
2021/12/21 12:30:02;;;;;;;12.37;4.83;;;;;;;;;;5022458;28;20509;-80
2021/12/21 12:32:35;;;;;;;11.73;4.73;;;;;;;;;;5021509;28;20236;-80
2021/12/21 12:35:03;;;;;;;8.80;3.90;;;;;;;;;;5020385;28;20298;-81
2021/12/21 12:37:30;;;;;;;9.13;4.00;;;;;;;;;;5021956;28;21049;-81
2021/12/21 12:40:06;;;;;;;9.57;3.50;;;;;;;;;;5017196;28;20493;-81
2021/12/21 12:42:34;;;;;;;10.37;3.87;;;;;;;;;;5017397;28;20933;-81
2021/12/21 12:45:09;;;;;;;9.47;2.80;;;;;;;;;;5015565;28;20490;-82
2021/12/21 12:47:38;;;;;;;9.23;2.90;;;;;;;;;;5025769;28;20207;-84
2021/12/21 12:50:14;;;;;;;10.83;3.33;;;;;;;;;;5035286;28;20207;-79
2021/12/21 12:52:50;;;;;;;11.40;3.30;;;;;;;;;;5020578;28;20281;-80
2021/12/21 12:55:21;;;;;;;8.30;3.00;;;;;;;;;;5020784;28;20359;-81
2021/12/21 12:57:53;;;;;;;9.27;3.00;;;;;;;;;;5017964;28;20212;-81
2021/12/21 13:00:22;;;;;;;7.57;3.17;;;;;;;;;;5023173;28;20769;-81
2021/12/21 13:02:56;;;;;;;8.10;3.13;;;;;;;;;;5029202;28;20207;-81
2021/12/21 13:05:26;;;;;;;7.50;3.10;;;;;;;;;;5018301;28;20230;-81
2021/12/21 13:07:53;;;;;;;11.20;3.03;;;;;;;;;;5020100;28;20763;-81
2021/12/21 13:10:24;;;;;;;12.27;3.37;;;;;;;;;;5017163;28;20494;-82
2021/12/21 13:12:58;;;;;;;9.23;3.53;;;;;;;;;;5022670;28;20224;-81
2021/12/21 13:15:36;;;;;;;11.50;3.50;;;;;;;;;;5022671;28;20471;-81
2021/12/21 13:18:04;;;;;;;8.83;2.80;;;;;;;;;;5031477;28;20262;-80
2021/12/21 13:20:31;;;;;;;15.50;3.83;;;;;;;;;;5020691;28;20203;-82
2021/12/21 13:23:09;;;;;;;13.73;3.63;;;;;;;;;;5022342;28;20648;-81
2021/12/21 13:25:38;;;;;;;6.10;2.40;;;;;;;;;;5012279;28;20314;-82
2021/12/21 13:28:12;;;;;;;7.20;2.73;;;;;;;;;;5018209;28;20207;-82
2021/12/21 13:30:46;;;;;;;8.20;3.20;;;;;;;;;;5018781;28;20219;-82
2021/12/21 13:33:21;;;;;;;8.93;2.63;;;;;;;;;;5012711;28;20239;-82
2021/12/21 13:35:49;;;;;;;7.47;2.60;;;;;;;;;;5017229;28;20228;-80
2021/12/21 13:38:16;;;;;;;6.00;2.40;;;;;;;;;;5028100;28;20254;-82
2021/12/21 13:40:47;;;;;;;4.73;1.97;;;;;;;;;;5026620;28;20659;-82
2021/12/21 13:43:14;;;;;;;10.23;3.03;;;;;;;;;;5017179;28;20238;-82
2021/12/21 13:45:42;;;;;;;6.37;2.53;;;;;;;;;;5025563;28;20224;-82
2021/12/21 13:48:16;;;;;;;6.00;2.47;;;;;;;;;;5025840;28;20257;-82
2021/12/21 13:50:43;;;;;;;12.13;5.63;;;;;;;;;;5019359;28;20208;-82
2021/12/21 13:53:11;;;;;;;18.73;8.07;;;;;;;;;;5023158;28;20216;-80
2021/12/21 13:55:40;;;;;;;10.73;3.90;;;;;;;;;;5025169;28;20290;-80
2021/12/21 13:58:09;;;;;;;68.87;24.77;;;;;;;;;;5021168;28;20568;-86
2021/12/21 14:00:38;;;;;;;11.30;5.60;;;;;;;;;;5015991;28;20266;-83
2021/12/21 14:03:16;;;;;;;8.93;3.37;;;;;;;;;;5016238;28;20255;-81
2021/12/21 14:05:45;;;;;;;8.03;2.63;;;;;;;;;;5014988;28;20899;-82
2021/12/21 14:08:13;;;;;;;17.37;5.37;;;;;;;;;;5017236;28;20528;-80
2021/12/21 14:10:41;;;;;;;24.03;10.40;;;;;;;;;;5014399;28;20291;-80
2021/12/21 14:13:10;;;;;;;27.73;9.83;;;;;;;;;;5023580;28;20225;-81
2021/12/21 14:15:38;;;;;;;20.70;8.27;;;;;;;;;;5029454;28;20686;-80
2021/12/21 14:18:18;;;;;;;44.27;19.93;;;;;;;;;;5022737;28;20294;-82
2021/12/21 14:20:46;;;;;;;24.53;9.10;;;;;;;;;;5018660;28;20655;-81
2021/12/21 14:23:17;;;;;;;41.17;16.27;;;;;;;;;;5018019;28;20254;-84
2021/12/21 14:25:45;;;;;;;14.67;6.70;;;;;;;;;;5017131;28;20232;-83
2021/12/21 14:28:14;;;;;;;16.43;8.27;;;;;;;;;;5018954;28;20212;-83
2021/12/21 14:30:41;;;;;;;15.73;7.37;;;;;;;;;;5014768;28;20221;-82
2021/12/21 14:33:22;;;;;;;15.00;4.63;;;;;;;;;;5018093;28;21756;-81
2021/12/21 14:35:49;;;;;;;16.87;4.87;;;;;;;;;;5016168;28;20223;-81
2021/12/21 14:38:17;;;;;;;17.00;5.80;;;;;;;;;;5020632;28;20892;-81
2021/12/21 14:40:46;;;;;;;11.23;4.00;;;;;;;;;;5022546;28;20819;-81
2021/12/21 14:43:30;;;;;;;21.20;9.03;;;;;;;;;;5030021;28;20442;-81
2021/12/21 14:45:58;;;;;;;12.70;5.17;;;;;;;;;;5027778;28;20543;-82
2021/12/21 14:48:27;;;;;;;13.50;4.40;;;;;;;;;;5021768;28;20502;-82
2021/12/21 14:51:06;;;;;;;8.93;4.10;;;;;;;;;;5020137;28;20551;-82
2021/12/21 14:53:44;;;;;;;8.80;2.53;;;;;;;;;;5030752;23;20836;-82
2021/12/21 14:56:13;;;;;;;8.63;3.70;;;;;;;;;;5024681;28;20479;-82
2021/12/21 14:58:42;;;;;;;7.30;2.80;;;;;;;;;;5025866;28;20455;-82
2021/12/21 15:01:09;;;;;;;9.27;3.37;;;;;;;;;;5028519;28;20520;-81
2021/12/21 15:03:40;;;;;;;7.30;3.40;;;;;;;;;;5026769;28;20470;-81
2021/12/21 15:06:07;;;;;;;6.53;2.80;;;;;;;;;;5025687;28;21101;-83
2021/12/21 15:08:37;;;;;;;10.83;2.73;;;;;;;;;;5017334;28;20550;-81
2021/12/21 15:11:05;;;;;;;11.70;4.37;;;;;;;;;;5023359;28;20463;-80
2021/12/21 15:13:32;;;;;;;13.97;4.20;;;;;;;;;;5022884;28;20497;-80
2021/12/21 15:16:01;;;;;;;40.53;11.33;;;;;;;;;;5023541;28;20478;-81